createdAt,value
2019-04-03T00:02:06.553Z,10.17
2019-04-03T00:04:36.110Z,9.47
2019-04-03T00:07:06.036Z,9.70
2019-04-03T00:09:36.551Z,10.50
2019-04-03T00:12:06.385Z,9.53
2019-04-03T00:14:35.841Z,10.20
2019-04-03T00:17:05.392Z,10.43
2019-04-03T00:19:34.930Z,9.63
2019-04-03T00:22:04.449Z,10.30
2019-04-03T00:24:33.993Z,9.90
2019-04-03T00:27:03.633Z,10.17
2019-04-03T00:29:33.138Z,9.60
2019-04-03T00:32:02.696Z,10.93
2019-04-03T00:34:32.232Z,10.07
2019-04-03T00:37:01.865Z,10.57
2019-04-03T00:39:31.407Z,10.33
2019-04-03T00:42:00.944Z,10.23
2019-04-03T00:44:30.477Z,10.60
2019-04-03T00:47:00.157Z,10.23
2019-04-03T00:49:29.642Z,10.60
2019-04-03T00:51:59.178Z,10.10
2019-04-03T00:54:31.345Z,10.47
2019-04-03T00:57:04.150Z,9.80
2019-04-03T00:59:33.686Z,10.20
2019-04-03T01:02:05.174Z,8.87
2019-04-03T01:04:36.827Z,10.33
2019-04-03T01:07:07.492Z,10.20
2019-04-03T01:09:37.046Z,10.50
2019-04-03T01:12:06.858Z,10.53
2019-04-03T01:14:37.500Z,10.63
2019-04-03T01:17:08.980Z,10.83
2019-04-03T01:19:39.808Z,10.50
2019-04-03T01:22:10.638Z,11.00
2019-04-03T01:24:40.359Z,10.00
2019-04-03T01:27:11.941Z,11.93
2019-04-03T01:29:42.928Z,10.73
2019-04-03T01:32:15.146Z,10.87
2019-04-03T01:34:43.986Z,9.97
2019-04-03T01:37:13.822Z,10.70
2019-04-03T01:39:43.450Z,10.53
2019-04-03T01:42:13.168Z,10.90
2019-04-03T01:44:44.690Z,10.43
2019-04-03T01:47:16.061Z,11.27
2019-04-03T01:49:46.943Z,9.93
2019-04-03T01:52:16.464Z,11.13
2019-04-03T01:54:47.251Z,11.10
2019-04-03T01:57:17.973Z,10.00
2019-04-03T01:59:47.510Z,10.40
2019-04-03T02:02:18.537Z,10.80
2019-04-03T02:04:48.046Z,11.07
2019-04-03T02:07:17.596Z,10.33
2019-04-03T02:09:47.304Z,10.40
2019-04-03T02:12:17.936Z,10.20
2019-04-03T02:14:48.085Z,9.90
2019-04-03T02:17:17.615Z,10.67
2019-04-03T02:19:47.147Z,10.07
2019-04-03T02:22:16.686Z,10.53
2019-04-03T02:24:46.235Z,10.63
2019-04-03T02:27:15.772Z,11.20
2019-04-03T02:29:45.354Z,11.10
2019-04-03T02:32:15.135Z,11.03
2019-04-03T02:34:44.747Z,10.87
2019-04-03T02:37:18.032Z,11.07
2019-04-03T02:39:49.467Z,10.47
2019-04-03T02:42:20.839Z,10.73
2019-04-03T02:44:51.706Z,10.43
2019-04-03T02:47:21.666Z,10.87
2019-04-03T02:49:51.355Z,11.07
2019-04-03T02:52:24.335Z,10.60
2019-04-03T02:54:53.858Z,10.60
2019-04-03T02:57:23.579Z,9.60
2019-04-03T02:59:53.227Z,10.30
2019-04-03T03:02:22.773Z,10.73
2019-04-03T03:04:55.652Z,10.33
2019-04-03T03:07:25.216Z,10.43
2019-04-03T03:09:55.256Z,10.40
2019-04-03T03:12:27.382Z,10.30
2019-04-03T03:14:56.459Z,10.50
2019-04-03T03:17:27.716Z,10.10
2019-04-03T03:19:59.470Z,10.00
2019-04-03T03:22:29.876Z,10.67
2019-04-03T03:25:00.997Z,10.17
2019-04-03T03:27:30.719Z,10.37
2019-04-03T03:30:00.568Z,10.67
2019-04-03T03:32:34.867Z,10.67
2019-04-03T03:35:12.311Z,10.50
2019-04-03T03:37:35.551Z,11.17
2019-04-03T03:40:06.316Z,11.43
2019-04-03T03:42:37.106Z,10.80
2019-04-03T03:45:07.583Z,10.73
2019-04-03T03:47:38.056Z,10.93
2019-04-03T03:50:08.572Z,11.07
2019-04-03T03:52:39.424Z,11.97
2019-04-03T03:55:09.750Z,11.53
2019-04-03T03:57:40.675Z,10.43
2019-04-03T04:00:11.640Z,10.53
2019-04-03T04:02:44.310Z,10.80
2019-04-03T04:05:12.439Z,11.30
2019-04-03T04:07:42.039Z,10.53
2019-04-03T04:10:12.165Z,11.47
2019-04-03T04:12:43.496Z,10.77
2019-04-03T04:15:13.326Z,10.73
2019-04-03T04:17:42.840Z,10.87
2019-04-03T04:20:13.032Z,10.67
2019-04-03T04:22:43.974Z,11.73
2019-04-03T04:25:13.607Z,10.70
2019-04-03T04:27:43.771Z,10.97
2019-04-03T04:30:16.632Z,10.87
2019-04-03T04:32:46.909Z,11.23
2019-04-03T04:35:16.602Z,10.07
2019-04-03T04:37:46.154Z,10.60
2019-04-03T04:40:15.781Z,10.90
2019-04-03T04:42:45.638Z,10.03
2019-04-03T04:45:15.611Z,9.87
2019-04-03T04:47:46.555Z,10.47
2019-04-03T04:50:24.253Z,9.80
2019-04-03T04:52:53.551Z,10.50
2019-04-03T04:55:23.107Z,10.53
2019-04-03T04:57:52.671Z,10.57
2019-04-03T05:00:22.223Z,11.87
2019-04-03T05:02:51.767Z,11.33
2019-04-03T05:05:21.318Z,10.40
2019-04-03T05:07:50.871Z,10.73
2019-04-03T05:10:20.600Z,11.03
2019-04-03T05:12:52.054Z,11.50
2019-04-03T05:15:25.144Z,9.80
2019-04-03T05:17:57.105Z,11.13
2019-04-03T05:20:26.212Z,10.87
2019-04-03T05:22:55.827Z,10.63
2019-04-03T05:25:25.365Z,10.90
2019-04-03T05:27:54.936Z,11.17
2019-04-03T05:30:32.819Z,10.73
2019-04-03T05:33:02.360Z,11.37
2019-04-03T05:35:52.051Z,11.17
2019-04-03T05:38:22.459Z,11.37
2019-04-03T05:40:56.480Z,12.23
2019-04-03T05:43:26.201Z,10.83
2019-04-03T05:45:55.976Z,10.67
2019-04-03T05:48:37.135Z,10.73
2019-04-03T05:51:13.047Z,10.83
2019-04-03T05:53:47.312Z,10.07
2019-04-03T05:56:24.467Z,12.13
2019-04-03T05:58:56.865Z,11.43
2019-04-03T06:01:25.517Z,11.40
2019-04-03T06:03:55.371Z,10.37
2019-04-03T06:06:25.257Z,10.87
2019-04-03T06:08:56.464Z,12.13
2019-04-03T06:11:25.977Z,12.07
2019-04-03T06:13:55.600Z,11.70
2019-04-03T06:16:25.475Z,11.73
2019-04-03T06:18:55.272Z,12.27
2019-04-03T06:21:24.892Z,11.33
2019-04-03T06:23:54.483Z,11.13
2019-04-03T06:26:24.268Z,12.70
2019-04-03T06:28:54.015Z,10.97
2019-04-03T06:31:24.306Z,10.97
2019-04-03T06:33:54.782Z,11.57
2019-04-03T06:36:26.701Z,11.03
2019-04-03T06:38:57.143Z,11.20
2019-04-03T06:41:27.188Z,11.30
2019-04-03T06:43:56.846Z,12.20
2019-04-03T06:46:28.576Z,11.80
2019-04-03T06:48:57.717Z,11.80
2019-04-03T06:51:27.269Z,11.90
2019-04-03T06:53:58.782Z,11.40
2019-04-03T06:56:28.038Z,11.17
2019-04-03T06:58:57.562Z,11.40
2019-04-03T07:01:27.275Z,11.40
2019-04-03T07:03:57.090Z,10.53
2019-04-03T07:06:27.693Z,11.00
2019-04-03T07:08:58.294Z,10.93
2019-04-03T07:11:28.175Z,10.13
2019-04-03T07:14:01.422Z,11.87
2019-04-03T07:16:31.336Z,11.37
2019-04-03T07:19:01.340Z,12.73
2019-04-03T07:21:32.679Z,13.23
2019-04-03T07:24:02.287Z,13.10
2019-04-03T07:26:32.026Z,12.73
2019-04-03T07:29:02.634Z,13.37
2019-04-03T07:31:32.307Z,12.83
2019-04-03T07:34:03.443Z,14.73
2019-04-03T07:36:34.368Z,15.97
2019-04-03T07:39:06.291Z,14.10
2019-04-03T07:41:35.888Z,15.00
2019-04-03T07:44:05.800Z,15.00
2019-04-03T07:46:35.331Z,15.20
2019-04-03T07:49:04.898Z,14.37
2019-04-03T07:51:34.650Z,13.40
2019-04-03T07:54:04.949Z,12.40
2019-04-03T07:56:34.728Z,15.20
2019-04-03T07:59:04.364Z,12.43
2019-04-03T08:01:33.890Z,11.43
2019-04-03T08:04:03.450Z,12.80
2019-04-03T08:06:35.039Z,11.33
2019-04-03T08:09:09.080Z,11.77
2019-04-03T08:11:37.478Z,12.60
2019-04-03T08:14:09.141Z,12.30
2019-04-03T08:16:41.602Z,12.20
2019-04-03T08:19:09.878Z,13.00
2019-04-03T08:21:39.430Z,11.87
2019-04-03T08:24:08.990Z,12.40
2019-04-03T08:26:38.719Z,13.67
2019-04-03T08:29:08.243Z,11.30
2019-04-03T08:31:37.774Z,10.77
2019-04-03T08:34:16.294Z,11.40
2019-04-03T08:36:39.815Z,11.33
2019-04-03T08:39:09.763Z,11.17
2019-04-03T08:41:39.323Z,12.57
2019-04-03T08:44:09.290Z,13.03
2019-04-03T08:46:39.059Z,12.23
2019-04-03T08:49:08.630Z,11.67
2019-04-03T08:51:38.258Z,12.67
2019-04-03T08:54:09.815Z,12.30
2019-04-03T08:56:39.003Z,12.20
2019-04-03T08:59:08.542Z,12.77
2019-04-03T09:01:38.219Z,11.47
2019-04-03T09:04:08.014Z,11.43
2019-04-03T09:06:37.596Z,11.87
2019-04-03T09:09:09.679Z,11.57
2019-04-03T09:11:39.337Z,11.43
2019-04-03T09:14:09.173Z,11.23
2019-04-03T09:16:38.979Z,12.40
2019-04-03T09:19:10.462Z,12.43
2019-04-03T09:21:39.874Z,11.17
2019-04-03T09:24:09.472Z,10.10
2019-04-03T09:26:39.005Z,11.20
2019-04-03T09:29:08.530Z,12.13
2019-04-03T09:31:38.131Z,11.17
2019-04-03T09:34:07.891Z,11.07
2019-04-03T09:36:37.583Z,11.00
2019-04-03T09:39:12.916Z,12.40
2019-04-03T09:41:42.279Z,11.73
2019-04-03T09:44:11.879Z,11.87
2019-04-03T09:46:44.536Z,10.57
2019-04-03T09:49:13.099Z,10.77
2019-04-03T09:51:42.839Z,9.97
2019-04-03T09:54:13.998Z,11.40
2019-04-03T09:56:56.114Z,9.77
2019-04-03T09:59:15.929Z,10.57
2019-04-03T10:01:47.827Z,11.23
2019-04-03T10:04:20.053Z,10.53
2019-04-03T10:06:48.572Z,10.63
2019-04-03T10:09:18.675Z,10.63
2019-04-03T10:11:50.603Z,10.13
2019-04-03T10:14:19.662Z,9.47
2019-04-03T10:16:49.943Z,10.73
2019-04-03T10:19:19.471Z,10.67
2019-04-03T10:21:51.752Z,10.77
2019-04-03T10:24:20.370Z,10.77
2019-04-03T10:26:49.995Z,10.73
2019-04-03T10:29:21.899Z,11.00
2019-04-03T10:31:53.126Z,11.00
2019-04-03T10:34:22.806Z,11.17
2019-04-03T10:36:52.736Z,11.17
2019-04-03T10:39:23.507Z,10.47
2019-04-03T10:41:53.079Z,11.03
2019-04-03T10:44:22.638Z,9.93
2019-04-03T10:46:52.163Z,11.00
2019-04-03T10:49:21.710Z,12.17
2019-04-03T10:51:51.331Z,11.07
2019-04-03T10:54:21.931Z,12.40
2019-04-03T10:56:53.175Z,11.07
2019-04-03T10:59:22.906Z,11.77
2019-04-03T11:01:52.465Z,10.67
2019-04-03T11:04:22.095Z,10.90
2019-04-03T11:06:51.806Z,11.47
2019-04-03T11:09:21.356Z,11.53
2019-04-03T11:11:54.311Z,10.93
2019-04-03T11:14:24.040Z,10.57
2019-04-03T11:16:53.738Z,9.83
2019-04-03T11:19:23.429Z,10.87
2019-04-03T11:21:54.699Z,11.33
2019-04-03T11:24:24.511Z,11.93
2019-04-03T11:26:54.788Z,11.37
2019-04-03T11:29:24.528Z,11.57
2019-04-03T11:31:54.418Z,12.00
2019-04-03T11:34:24.143Z,12.60
2019-04-03T11:36:54.024Z,11.20
2019-04-03T11:39:24.175Z,10.87
2019-04-03T11:41:55.574Z,10.90
2019-04-03T11:44:25.643Z,11.60
2019-04-03T11:46:55.860Z,10.57
2019-04-03T11:49:25.472Z,11.60
2019-04-03T11:51:55.197Z,10.63
2019-04-03T11:54:25.092Z,9.40
2019-04-03T11:56:56.656Z,10.40
2019-04-03T11:59:26.398Z,9.07
2019-04-03T12:01:56.391Z,8.97
2019-04-03T12:04:25.994Z,8.27
2019-04-03T12:06:55.526Z,10.30
2019-04-03T12:09:25.486Z,7.70
2019-04-03T12:11:55.542Z,7.27
2019-04-03T12:14:25.298Z,8.23
2019-04-03T12:16:57.046Z,7.83
2019-04-03T12:19:26.270Z,9.30
2019-04-03T12:21:55.834Z,7.17
2019-04-03T12:24:25.362Z,7.10
2019-04-03T12:26:55.482Z,8.07
2019-04-03T12:29:25.668Z,7.27
2019-04-03T12:31:55.271Z,6.93
2019-04-03T12:34:25.069Z,6.73
2019-04-03T12:36:54.889Z,6.73
2019-04-03T12:39:28.071Z,7.43
2019-04-03T12:41:58.241Z,6.47
2019-04-03T12:44:29.004Z,6.50
2019-04-03T12:46:59.005Z,6.60
2019-04-03T12:49:28.535Z,7.07
2019-04-03T12:51:58.156Z,6.83
2019-04-03T12:54:27.995Z,6.67
2019-04-03T12:57:00.295Z,7.10
2019-04-03T12:59:29.347Z,6.97
2019-04-03T13:01:59.348Z,6.87
2019-04-03T13:04:31.064Z,6.30
2019-04-03T13:07:00.376Z,6.60
2019-04-03T13:09:29.914Z,7.20
2019-04-03T13:12:00.081Z,6.70
2019-04-03T13:14:30.205Z,6.93
2019-04-03T13:17:00.949Z,6.43
2019-04-03T13:19:30.795Z,6.17
2019-04-03T13:22:00.506Z,6.77
2019-04-03T13:24:30.316Z,7.70
2019-04-03T13:27:00.303Z,6.67
2019-04-03T13:29:29.856Z,6.20
2019-04-03T13:31:59.650Z,7.13
2019-04-03T13:34:31.153Z,7.17
2019-04-03T13:37:00.459Z,6.97
2019-04-03T13:39:30.949Z,7.03
2019-04-03T13:42:01.947Z,6.87
2019-04-03T13:44:31.891Z,6.57
2019-04-03T13:47:01.510Z,7.17
2019-04-03T13:49:31.386Z,6.90
2019-04-03T13:52:10.747Z,6.93
2019-04-03T13:54:46.177Z,6.47
2019-04-03T13:57:34.921Z,6.03
2019-04-03T14:00:19.905Z,6.33
2019-04-03T14:02:56.880Z,6.53
2019-04-03T14:05:27.817Z,5.77
2019-04-03T14:07:57.780Z,5.17
2019-04-03T14:10:27.919Z,5.47
2019-04-03T14:12:59.364Z,6.00
2019-04-03T14:15:31.189Z,5.47
2019-04-03T14:18:00.804Z,5.30
2019-04-03T14:20:30.961Z,5.23
2019-04-03T14:23:02.705Z,4.97
2019-04-03T14:25:38.006Z,5.90
2019-04-03T14:28:07.147Z,5.30
2019-04-03T14:30:37.175Z,5.70
2019-04-03T14:33:06.977Z,5.57
2019-04-03T14:35:48.715Z,4.83
2019-04-03T14:38:07.875Z,4.80
2019-04-03T14:40:37.387Z,5.20
2019-04-03T14:43:06.975Z,5.10
2019-04-03T14:45:38.754Z,5.13
2019-04-03T14:48:07.665Z,5.40
2019-04-03T14:50:38.346Z,5.33
2019-04-03T14:53:08.550Z,5.60
2019-04-03T14:55:47.185Z,5.80
2019-04-03T14:58:09.860Z,5.07
2019-04-03T15:00:39.638Z,5.03
2019-04-03T15:03:10.371Z,5.63
2019-04-03T15:05:42.579Z,5.57
2019-04-03T15:08:11.108Z,6.63
2019-04-03T15:10:40.646Z,5.37
2019-04-03T15:13:12.728Z,5.60
2019-04-03T15:15:41.381Z,4.83
2019-04-03T15:18:11.371Z,4.67
2019-04-03T15:20:41.251Z,4.70
2019-04-03T15:23:10.791Z,5.03
2019-04-03T15:25:42.526Z,4.83
2019-04-03T15:28:11.743Z,4.83
2019-04-03T15:30:43.412Z,5.00
2019-04-03T15:33:12.682Z,4.50
2019-04-03T15:35:42.509Z,4.73
2019-04-03T15:38:13.305Z,5.07
2019-04-03T15:40:43.541Z,6.10
2019-04-03T15:43:15.948Z,5.70
2019-04-03T15:45:44.341Z,4.77
2019-04-03T15:48:13.893Z,5.03
2019-04-03T15:50:43.443Z,5.40
2019-04-03T15:53:12.990Z,4.30
2019-04-03T15:55:42.535Z,5.20
2019-04-03T15:58:12.694Z,4.67
2019-04-03T16:00:47.046Z,4.23
2019-04-03T16:03:17.568Z,4.13
2019-04-03T16:05:49.715Z,4.33
2019-04-03T16:08:19.669Z,3.80
2019-04-03T16:10:49.484Z,4.87
2019-04-03T16:13:21.347Z,4.47
2019-04-03T16:15:50.195Z,5.07
2019-04-03T16:18:20.646Z,4.80
2019-04-03T16:20:50.878Z,4.50
2019-04-03T16:23:20.439Z,3.87
2019-04-03T16:25:50.392Z,3.97
2019-04-03T16:28:19.998Z,4.27
2019-04-03T16:30:52.473Z,5.67
2019-04-03T16:33:23.984Z,5.47
2019-04-03T16:35:51.951Z,4.20
2019-04-03T16:38:21.845Z,4.30
2019-04-03T16:40:51.562Z,3.97
2019-04-03T16:43:22.217Z,4.27
2019-04-03T16:45:52.502Z,3.57
2019-04-03T16:48:22.021Z,3.10
2019-04-03T16:50:51.574Z,3.93
2019-04-03T16:53:21.443Z,4.20
2019-04-03T16:55:51.151Z,3.97
2019-04-03T16:58:20.722Z,12.40
2019-04-03T17:00:50.550Z,5.50
2019-04-03T17:03:20.309Z,3.90
2019-04-03T17:05:49.873Z,3.77
2019-04-03T17:08:19.481Z,4.00
2019-04-03T17:10:49.031Z,3.73
2019-04-03T17:13:18.901Z,3.77
2019-04-03T17:15:49.794Z,3.53
2019-04-03T17:18:19.330Z,9.97
2019-04-03T17:20:50.350Z,4.10
2019-04-03T17:23:20.219Z,3.40
2019-04-03T17:25:51.600Z,3.73
2019-04-03T17:28:21.050Z,3.40
2019-04-03T17:30:51.591Z,4.00
2019-04-03T17:33:22.185Z,3.87
2019-04-03T17:35:52.170Z,3.70
2019-04-03T17:38:21.752Z,3.87
2019-04-03T17:40:51.522Z,3.50
2019-04-03T17:43:21.053Z,11.83
2019-04-03T17:45:50.587Z,4.40
2019-04-03T17:48:20.146Z,3.17
2019-04-03T17:50:49.681Z,3.47
2019-04-03T17:53:19.252Z,3.97
2019-04-03T17:55:48.998Z,3.50
2019-04-03T17:58:18.559Z,3.80
2019-04-03T18:00:51.648Z,4.23
2019-04-03T18:03:19.619Z,4.00
2019-04-03T18:05:51.442Z,3.93
2019-04-03T18:08:21.942Z,4.00
2019-04-03T18:10:51.478Z,4.40
2019-04-03T18:13:23.372Z,4.57
2019-04-03T18:15:53.515Z,5.97
2019-04-03T18:18:23.027Z,4.90
2019-04-03T18:20:52.580Z,4.30
2019-04-03T18:23:22.507Z,4.47
2019-04-03T18:25:52.041Z,4.03
2019-04-03T18:28:21.584Z,4.37
2019-04-03T18:30:51.180Z,4.07
2019-04-03T18:33:20.727Z,4.03
2019-04-03T18:35:50.248Z,4.00
2019-04-03T18:38:19.831Z,28.77
2019-04-03T18:40:49.791Z,36.43
2019-04-03T18:43:21.647Z,6.93
2019-04-03T18:45:50.794Z,5.00
2019-04-03T18:48:20.312Z,3.80
2019-04-03T18:50:49.877Z,27.33
2019-04-03T18:53:19.498Z,5.20
2019-04-03T18:55:49.026Z,4.67
2019-04-03T18:58:18.566Z,4.17
2019-04-03T19:00:48.146Z,4.23
2019-04-03T19:03:17.684Z,4.33
2019-04-03T19:05:47.310Z,7.97
2019-04-03T19:08:18.296Z,7.73
2019-04-03T19:10:48.075Z,4.70
2019-04-03T19:13:17.634Z,3.93
2019-04-03T19:15:47.158Z,3.77
2019-04-03T19:18:19.635Z,3.30
2019-04-03T19:20:49.032Z,3.63
2019-04-03T19:23:18.563Z,3.70
2019-04-03T19:25:48.115Z,4.93
2019-04-03T19:28:17.790Z,4.97
2019-04-03T19:30:47.358Z,4.87
2019-04-03T19:33:17.086Z,4.30
2019-04-03T19:35:46.635Z,4.07
2019-04-03T19:38:16.388Z,3.87
2019-04-03T19:40:45.968Z,4.43
2019-04-03T19:43:15.578Z,3.50
2019-04-03T19:45:45.178Z,8.30
2019-04-03T19:48:14.946Z,4.60
2019-04-03T19:50:44.546Z,5.40
2019-04-03T19:53:14.178Z,5.30
2019-04-03T19:55:43.992Z,5.07
2019-04-03T19:58:13.528Z,4.47
2019-04-03T20:00:43.874Z,4.10
2019-04-03T20:03:14.185Z,4.30
2019-04-03T20:05:44.495Z,4.00
2019-04-03T20:08:18.213Z,3.90
2019-04-03T20:10:49.067Z,4.00
2019-04-03T20:13:18.290Z,10.97
2019-04-03T20:15:48.247Z,4.90
2019-04-03T20:18:17.802Z,4.43
2019-04-03T20:20:47.342Z,5.40
2019-04-03T20:23:17.271Z,5.00
2019-04-03T20:25:46.906Z,3.90
2019-04-03T20:28:18.871Z,4.33
2019-04-03T20:30:48.631Z,4.93
2019-04-03T20:33:18.184Z,4.07
2019-04-03T20:35:49.379Z,5.30
2019-04-03T20:38:18.898Z,4.07
2019-04-03T20:40:48.434Z,4.33
2019-04-03T20:43:17.961Z,10.60
2019-04-03T20:45:49.539Z,6.40
2019-04-03T20:48:18.919Z,4.33
2019-04-03T20:50:48.638Z,4.33
2019-04-03T20:53:18.308Z,4.00
2019-04-03T20:55:47.791Z,3.83
2019-04-03T20:58:17.383Z,3.90
2019-04-03T21:00:49.501Z,4.00
2019-04-03T21:03:18.142Z,4.07
2019-04-03T21:05:48.776Z,3.83
2019-04-03T21:08:18.993Z,3.43
2019-04-03T21:10:48.520Z,3.60
2019-04-03T21:13:18.047Z,3.40
2019-04-03T21:15:47.606Z,3.47
2019-04-03T21:18:17.202Z,3.97
2019-04-03T21:20:46.735Z,3.33
2019-04-03T21:23:16.306Z,3.43
2019-04-03T21:25:45.834Z,3.60
2019-04-03T21:28:15.381Z,3.23
2019-04-03T21:30:44.967Z,3.93
2019-04-03T21:33:17.142Z,2.90
2019-04-03T21:35:45.695Z,3.10
2019-04-03T21:38:15.236Z,3.07
2019-04-03T21:40:46.596Z,3.03
2019-04-03T21:43:15.969Z,3.30
2019-04-03T21:45:45.530Z,3.30
2019-04-03T21:48:15.105Z,2.97
2019-04-03T21:50:44.679Z,2.83
2019-04-03T21:53:14.266Z,3.53
2019-04-03T21:55:43.811Z,2.87
2019-04-03T21:58:13.341Z,2.77
2019-04-03T22:01:21.681Z,2.90
2019-04-03T22:03:52.027Z,2.93
2019-04-03T22:06:21.974Z,2.87
2019-04-03T22:08:51.780Z,2.90
2019-04-03T22:11:21.484Z,2.87
2019-04-03T22:13:51.023Z,2.67
2019-04-03T22:16:20.627Z,3.03
2019-04-03T22:18:50.098Z,3.10
2019-04-03T22:21:19.635Z,3.43
2019-04-03T22:23:49.198Z,3.03
2019-04-03T22:26:18.762Z,3.00
2019-04-03T22:28:48.284Z,2.73
2019-04-03T22:31:17.826Z,3.10
2019-04-03T22:33:47.358Z,2.93
2019-04-03T22:36:16.878Z,2.70
2019-04-03T22:38:46.462Z,3.03
2019-04-03T22:41:15.998Z,4.97
2019-04-03T22:43:46.183Z,2.70
2019-04-03T22:46:16.490Z,2.70
2019-04-03T22:48:46.070Z,2.83
2019-04-03T22:51:15.631Z,2.93
2019-04-03T22:53:45.187Z,2.80
2019-04-03T22:56:16.542Z,2.60
2019-04-03T22:58:45.942Z,2.40
2019-04-03T23:01:15.530Z,2.37
2019-04-03T23:03:45.061Z,2.40
2019-04-03T23:06:14.612Z,3.10
2019-04-03T23:08:44.237Z,2.70
2019-04-03T23:11:13.771Z,2.43
2019-04-03T23:13:43.338Z,2.30
2019-04-03T23:16:12.922Z,2.47
2019-04-03T23:18:42.543Z,2.13
2019-04-03T23:21:12.031Z,3.43
2019-04-03T23:23:41.599Z,2.33
2019-04-03T23:26:11.155Z,2.23
2019-04-03T23:28:40.709Z,2.27
2019-04-03T23:31:11.108Z,2.37
2019-04-03T23:33:41.490Z,2.23
2019-04-03T23:36:11.030Z,2.20
2019-04-03T23:38:40.626Z,2.00
2019-04-03T23:41:10.182Z,2.20
2019-04-03T23:43:40.254Z,1.90
2019-04-03T23:46:09.820Z,2.20
2019-04-03T23:48:39.391Z,2.40
2019-04-03T23:51:08.969Z,2.50
2019-04-03T23:53:38.560Z,2.30
2019-04-03T23:56:08.107Z,2.40
2019-04-03T23:58:37.718Z,2.20
